Time;durP1;ratioP1;P1;durP2;ratioP2;P2;SDS_P1;SDS_P2;PMS_P1;PMS_P2;Temp;Humidity;BMP_temperature;BMP_pressure;BME280_temperature;BME280_humidity;BME280_pressure;Samples;Min_cycle;Max_cycle;Signal;HPM_P1;HPM_P2
2023/05/29 00:02:05;;;;;;;;;12.00;12.00;;;;;;;;5058950;28;45369;-82
2023/05/29 00:04:30;;;;;;;;;13.00;13.00;;;;;;;;5059226;28;45377;-81
2023/05/29 00:06:55;;;;;;;;;11.33;11.33;;;;;;;;5059439;28;46932;-82
2023/05/29 00:09:21;;;;;;;;;13.00;12.00;;;;;;;;5060078;28;47851;-80
2023/05/29 00:11:50;;;;;;;;;14.33;13.00;;;;;;;;5059290;28;45465;-80
2023/05/29 00:14:18;;;;;;;;;14.00;12.33;;;;;;;;5060977;28;45252;-81
2023/05/29 00:16:45;;;;;;;;;16.00;15.67;;;;;;;;5058905;28;45429;-80
2023/05/29 00:19:10;;;;;;;;;13.67;13.67;;;;;;;;5058532;28;47317;-79
2023/05/29 00:21:35;;;;;;;;;15.00;14.33;;;;;;;;5060402;28;45274;-80
2023/05/29 00:24:00;;;;;;;;;11.00;11.00;;;;;;;;5060190;28;45314;-81
2023/05/29 00:26:26;;;;;;;;;15.00;15.00;;;;;;;;5058938;28;45945;-80
2023/05/29 00:28:51;;;;;;;;;15.67;15.00;;;;;;;;5059792;28;45462;-81
2023/05/29 00:31:16;;;;;;;;;16.33;16.33;;;;;;;;5060297;28;45429;-80
2023/05/29 00:33:41;;;;;;;;;13.33;13.33;;;;;;;;5060951;28;45227;-81
2023/05/29 00:36:07;;;;;;;;;14.33;13.00;;;;;;;;5058637;28;45794;-81
2023/05/29 00:38:32;;;;;;;;;14.33;14.33;;;;;;;;5059889;28;45402;-82
2023/05/29 00:40:58;;;;;;;;;16.00;14.00;;;;;;;;5060003;28;45416;-81
2023/05/29 00:43:24;;;;;;;;;15.33;15.00;;;;;;;;5060174;28;45345;-82
2023/05/29 00:45:49;;;;;;;;;12.33;11.33;;;;;;;;5058422;28;45906;-81
2023/05/29 00:48:15;;;;;;;;;15.67;15.33;;;;;;;;5060003;28;45348;-82
2023/05/29 00:50:40;;;;;;;;;16.67;15.33;;;;;;;;5058783;28;45347;-82
2023/05/29 00:53:07;;;;;;;;;13.67;13.33;;;;;;;;5061723;28;45322;-81
2023/05/29 00:55:33;;;;;;;;;15.00;13.00;;;;;;;;5059847;28;45444;-81
2023/05/29 00:57:58;;;;;;;;;13.67;13.00;;;;;;;;5058059;28;46895;-81
2023/05/29 01:00:24;;;;;;;;;15.67;15.67;;;;;;;;5058257;28;45350;-81
2023/05/29 01:02:49;;;;;;;;;13.00;11.33;;;;;;;;5058093;28;45374;-80
2023/05/29 01:05:14;;;;;;;;;12.33;11.67;;;;;;;;5059340;28;45498;-81
2023/05/29 01:07:40;;;;;;;;;18.67;16.33;;;;;;;;5059404;28;46364;-81
2023/05/29 01:10:07;;;;;;;;;17.00;15.00;;;;;;;;5059124;28;45371;-80
2023/05/29 01:12:37;;;;;;;;;15.33;12.67;;;;;;;;5059335;28;45204;-82
2023/05/29 01:15:18;;;;;;;;;14.67;12.67;;;;;;;;5057746;28;47272;-80
2023/05/29 01:17:58;;;;;;;;;12.67;12.67;;;;;;;;5058680;28;47133;-80
2023/05/29 01:20:26;;;;;;;;;16.33;14.00;;;;;;;;5061275;28;45310;-81
2023/05/29 01:23:13;;;;;;;;;15.33;14.33;;;;;;;;5060342;28;45425;-81
2023/05/29 01:25:57;;;;;;;;;14.67;14.67;;;;;;;;5060267;28;45225;-80
2023/05/29 01:28:26;;;;;;;;;13.00;13.00;;;;;;;;5057896;28;48029;-81
2023/05/29 01:30:52;;;;;;;;;17.33;15.33;;;;;;;;5058794;28;45598;-82
2023/05/29 01:33:17;;;;;;;;;14.33;14.33;;;;;;;;5059137;28;45358;-81
2023/05/29 01:35:42;;;;;;;;;17.33;15.67;;;;;;;;5057468;28;45890;-81
2023/05/29 01:38:07;;;;;;;;;16.33;16.33;;;;;;;;5058616;28;46710;-80
2023/05/29 01:40:32;;;;;;;;;19.00;15.00;;;;;;;;5059059;28;45492;-82
2023/05/29 01:42:58;;;;;;;;;13.67;13.67;;;;;;;;5062601;28;45382;-81
2023/05/29 01:45:23;;;;;;;;;16.00;14.67;;;;;;;;5061347;28;46193;-81
2023/05/29 01:47:48;;;;;;;;;12.67;12.67;;;;;;;;5060856;28;47262;-81
2023/05/29 01:50:17;;;;;;;;;13.67;13.33;;;;;;;;5060735;28;45678;-80
2023/05/29 01:52:43;;;;;;;;;13.67;13.67;;;;;;;;5062261;28;45264;-80
2023/05/29 01:55:08;;;;;;;;;16.67;16.33;;;;;;;;5062627;28;45198;-81
2023/05/29 01:57:34;;;;;;;;;16.67;16.00;;;;;;;;5062172;28;45435;-81
2023/05/29 01:59:59;;;;;;;;;14.67;14.67;;;;;;;;5060940;28;45224;-80
2023/05/29 02:02:24;;;;;;;;;13.00;13.00;;;;;;;;5061465;28;45430;-81
2023/05/29 02:04:51;;;;;;;;;16.33;14.33;;;;;;;;5062614;28;45256;-81
2023/05/29 02:07:16;;;;;;;;;15.33;14.67;;;;;;;;5062398;28;46158;-82
2023/05/29 02:09:42;;;;;;;;;14.67;14.33;;;;;;;;5062254;28;45456;-82
2023/05/29 02:12:07;;;;;;;;;18.67;16.00;;;;;;;;5060678;28;45305;-81
2023/05/29 02:14:32;;;;;;;;;15.00;15.00;;;;;;;;5060135;28;46174;-81
2023/05/29 02:16:58;;;;;;;;;15.33;15.33;;;;;;;;5060795;28;47979;-81
2023/05/29 02:19:25;;;;;;;;;14.00;14.00;;;;;;;;5060292;28;45295;-80
2023/05/29 02:21:50;;;;;;;;;15.00;13.33;;;;;;;;5060515;28;45305;-80
2023/05/29 02:24:15;;;;;;;;;16.00;13.67;;;;;;;;5060594;28;46886;-80
2023/05/29 02:26:42;;;;;;;;;14.00;14.00;;;;;;;;5061672;28;46945;-80
2023/05/29 02:29:07;;;;;;;;;13.33;13.33;;;;;;;;5061735;28;45602;-79
2023/05/29 02:31:32;;;;;;;;;17.00;16.33;;;;;;;;5062647;28;45541;-80
2023/05/29 02:33:57;;;;;;;;;17.67;14.67;;;;;;;;5061119;28;46093;-83
2023/05/29 02:36:23;;;;;;;;;12.00;11.00;;;;;;;;5061702;28;45639;-81
2023/05/29 02:38:48;;;;;;;;;16.33;15.67;;;;;;;;5062237;28;45430;-82
2023/05/29 02:41:13;;;;;;;;;16.67;14.00;;;;;;;;5062297;28;45372;-82
2023/05/29 02:43:38;;;;;;;;;14.00;14.00;;;;;;;;5062359;28;45350;-82
2023/05/29 02:46:03;;;;;;;;;14.00;14.00;;;;;;;;5062664;28;46316;-81
2023/05/29 02:48:29;;;;;;;;;14.67;13.33;;;;;;;;5060585;28;45326;-81
2023/05/29 02:50:54;;;;;;;;;13.67;13.67;;;;;;;;5061854;28;45318;-80
2023/05/29 02:53:19;;;;;;;;;13.67;12.33;;;;;;;;5060958;28;46899;-80
2023/05/29 02:55:45;;;;;;;;;12.67;12.67;;;;;;;;5061966;28;45835;-81
2023/05/29 02:58:11;;;;;;;;;15.67;14.67;;;;;;;;5060652;28;45404;-81
2023/05/29 03:00:36;;;;;;;;;15.33;15.00;;;;;;;;5061400;28;45476;-81
2023/05/29 03:03:03;;;;;;;;;14.33;12.33;;;;;;;;5061594;28;45370;-81
2023/05/29 03:05:28;;;;;;;;;14.67;13.33;;;;;;;;5060835;28;45377;-80
2023/05/29 03:07:53;;;;;;;;;15.00;13.33;;;;;;;;5062070;28;45383;-80
2023/05/29 03:10:18;;;;;;;;;15.33;14.00;;;;;;;;5060336;28;45355;-80
2023/05/29 03:12:44;;;;;;;;;13.33;13.33;;;;;;;;5061103;28;45275;-81
2023/05/29 03:15:10;;;;;;;;;14.00;14.00;;;;;;;;5059936;28;47433;-79
2023/05/29 03:17:38;;;;;;;;;12.67;12.67;;;;;;;;5061380;28;45402;-82
2023/05/29 03:20:05;;;;;;;;;12.67;12.67;;;;;;;;5061135;28;45488;-79
2023/05/29 03:22:31;;;;;;;;;15.33;15.33;;;;;;;;5060798;28;46096;-81
2023/05/29 03:24:56;;;;;;;;;15.67;13.33;;;;;;;;5060501;28;46229;-78
2023/05/29 03:27:21;;;;;;;;;16.67;16.00;;;;;;;;5060556;28;45200;-79
2023/05/29 03:29:46;;;;;;;;;13.33;13.00;;;;;;;;5059521;28;45384;-80
2023/05/29 03:32:11;;;;;;;;;14.67;12.00;;;;;;;;5059321;28;46915;-79
2023/05/29 03:34:36;;;;;;;;;15.33;13.00;;;;;;;;5060617;28;45895;-80
2023/05/29 03:37:03;;;;;;;;;13.00;13.00;;;;;;;;5059872;28;45363;-80
2023/05/29 03:39:28;;;;;;;;;16.00;15.00;;;;;;;;5060782;28;45425;-79
2023/05/29 03:41:53;;;;;;;;;14.33;13.67;;;;;;;;5058782;28;46929;-79
2023/05/29 03:44:18;;;;;;;;;16.00;14.67;;;;;;;;5059168;28;46066;-80
2023/05/29 03:46:43;;;;;;;;;15.00;14.67;;;;;;;;5058975;28;45951;-78
2023/05/29 03:49:09;;;;;;;;;13.00;12.67;;;;;;;;5060341;28;45417;-81
2023/05/29 03:51:35;;;;;;;;;15.00;12.00;;;;;;;;5060161;28;45295;-79
2023/05/29 03:54:00;;;;;;;;;16.67;15.33;;;;;;;;5058661;28;47165;-79
2023/05/29 03:56:26;;;;;;;;;15.00;14.67;;;;;;;;5059864;28;45383;-80
2023/05/29 03:58:51;;;;;;;;;12.33;10.67;;;;;;;;5058859;28;45392;-80
2023/05/29 04:01:16;;;;;;;;;16.33;14.33;;;;;;;;5060195;28;45211;-80
2023/05/29 04:03:43;;;;;;;;;13.00;13.00;;;;;;;;5059957;28;45370;-79
2023/05/29 04:06:09;;;;;;;;;15.33;14.67;;;;;;;;5060683;28;45325;-79
2023/05/29 04:08:34;;;;;;;;;13.67;13.00;;;;;;;;5060280;28;45247;-79
2023/05/29 04:10:59;;;;;;;;;17.33;17.00;;;;;;;;5059853;28;45276;-82
2023/05/29 04:13:24;;;;;;;;;16.00;14.00;;;;;;;;5058344;28;47431;-80
2023/05/29 04:15:53;;;;;;;;;14.33;14.33;;;;;;;;5055834;28;45138;-79
2023/05/29 04:18:18;;;;;;;;;13.33;13.33;;;;;;;;5039325;28;45442;-80
2023/05/29 04:20:46;;;;;;;;;15.00;13.00;;;;;;;;5058166;28;46226;-80
2023/05/29 04:23:12;;;;;;;;;17.00;15.67;;;;;;;;5059730;28;46195;-83
2023/05/29 04:25:37;;;;;;;;;12.33;12.33;;;;;;;;5058362;28;45346;-80
2023/05/29 04:28:03;;;;;;;;;15.00;14.00;;;;;;;;5060080;28;45576;-80
2023/05/29 04:30:28;;;;;;;;;8.67;8.67;;;;;;;;5058432;28;47038;-81
2023/05/29 04:32:53;;;;;;;;;15.67;14.00;;;;;;;;5058869;28;48336;-80
2023/05/29 04:35:19;;;;;;;;;14.67;13.67;;;;;;;;5059973;28;45333;-82
2023/05/29 04:37:45;;;;;;;;;18.00;14.33;;;;;;;;5059586;28;45210;-79
2023/05/29 04:40:11;;;;;;;;;14.00;14.00;;;;;;;;5059852;28;45760;-82
2023/05/29 04:42:37;;;;;;;;;12.33;12.33;;;;;;;;5059090;28;46373;-80
2023/05/29 04:45:04;;;;;;;;;15.00;14.67;;;;;;;;5059553;28;45358;-79
2023/05/29 04:47:32;;;;;;;;;16.00;16.00;;;;;;;;5058004;28;45287;-80
2023/05/29 04:49:59;;;;;;;;;13.33;12.00;;;;;;;;5059496;28;45478;-80
2023/05/29 04:52:24;;;;;;;;;14.67;14.67;;;;;;;;5057754;28;48627;-80
2023/05/29 04:54:49;;;;;;;;;17.33;13.67;;;;;;;;5059234;28;45330;-79
2023/05/29 04:57:15;;;;;;;;;15.00;15.00;;;;;;;;5058098;28;45398;-79
2023/05/29 04:59:41;;;;;;;;;14.00;13.00;;;;;;;;5058122;28;45890;-79
2023/05/29 05:02:06;;;;;;;;;20.67;18.67;;;;;;;;5059161;28;45416;-79
2023/05/29 05:04:32;;;;;;;;;15.00;14.33;;;;;;;;5058041;28;45379;-80
2023/05/29 05:06:57;;;;;;;;;16.33;15.33;;;;;;;;5059598;28;45460;-81
2023/05/29 05:09:22;;;;;;;;;16.33;16.33;;;;;;;;5059416;28;45264;-79
2023/05/29 05:11:47;;;;;;;;;16.00;14.50;;;;;;;;5059510;28;46026;-79
2023/05/29 05:14:12;;;;;;;;;15.00;12.67;;;;;;;;5059104;28;45311;-80
2023/05/29 05:16:37;;;;;;;;;24.33;22.67;;;;;;;;5061082;28;45384;-80
2023/05/29 05:19:03;;;;;;;;;21.00;18.67;;;;;;;;5061175;28;47076;-80
2023/05/29 05:21:31;;;;;;;;;13.67;13.00;;;;;;;;5061429;28;47422;-80
2023/05/29 05:23:56;;;;;;;;;19.33;16.33;;;;;;;;5062708;28;45529;-80
2023/05/29 05:26:22;;;;;;;;;15.67;15.67;;;;;;;;5061392;28;45327;-79
2023/05/29 05:28:47;;;;;;;;;23.33;23.33;;;;;;;;5062713;28;45896;-79
2023/05/29 05:31:12;;;;;;;;;27.67;22.67;;;;;;;;5062405;28;45225;-79
2023/05/29 05:33:37;;;;;;;;;17.00;16.67;;;;;;;;5062329;28;45220;-80
2023/05/29 05:36:03;;;;;;;;;18.67;16.67;;;;;;;;5060789;28;45417;-80
2023/05/29 05:38:28;;;;;;;;;31.33;26.33;;;;;;;;5061951;28;45555;-80
2023/05/29 05:40:53;;;;;;;;;63.00;46.75;;;;;;;;5061900;28;45160;-81
2023/05/29 05:43:18;;;;;;;;;20.67;16.67;;;;;;;;5060870;28;46018;-78
2023/05/29 05:45:43;;;;;;;;;16.67;14.00;;;;;;;;5062430;28;45185;-80
2023/05/29 05:48:09;;;;;;;;;16.33;16.33;;;;;;;;5060817;28;46156;-79
2023/05/29 05:50:34;;;;;;;;;17.67;16.67;;;;;;;;5061984;28;46102;-78
2023/05/29 05:52:59;;;;;;;;;27.67;25.33;;;;;;;;5062126;28;45289;-81
2023/05/29 05:55:26;;;;;;;;;15.67;15.67;;;;;;;;5062229;28;45260;-79
2023/05/29 05:57:51;;;;;;;;;18.00;14.67;;;;;;;;5060808;28;46333;-78
2023/05/29 06:00:16;;;;;;;;;16.67;15.67;;;;;;;;5057943;28;48219;-80
2023/05/29 06:02:42;;;;;;;;;20.33;19.33;;;;;;;;5049929;28;45300;-82
2023/05/29 06:05:08;;;;;;;;;15.00;15.00;;;;;;;;5045271;28;45336;-80
2023/05/29 06:07:33;;;;;;;;;16.67;16.67;;;;;;;;5040576;28;46019;-79
2023/05/29 06:09:58;;;;;;;;;21.00;20.67;;;;;;;;5040690;28;48231;-77
2023/05/29 06:12:24;;;;;;;;;18.00;17.67;;;;;;;;5041697;28;45457;-80
2023/05/29 06:14:49;;;;;;;;;24.33;22.00;;;;;;;;5041856;28;45347;-77
2023/05/29 06:17:15;;;;;;;;;22.33;21.33;;;;;;;;5041585;28;45324;-79
2023/05/29 06:19:40;;;;;;;;;16.33;16.33;;;;;;;;5041680;28;45965;-79
2023/05/29 06:22:05;;;;;;;;;18.67;18.67;;;;;;;;5039820;28;45350;-80
2023/05/29 06:24:30;;;;;;;;;17.00;17.00;;;;;;;;5041774;28;45633;-82
2023/05/29 06:26:56;;;;;;;;;32.00;29.00;;;;;;;;5041407;28;45343;-82
2023/05/29 06:29:21;;;;;;;;;19.67;18.00;;;;;;;;5050275;28;46092;-81
2023/05/29 06:31:46;;;;;;;;;57.50;45.00;;;;;;;;5060435;28;45345;-80
2023/05/29 06:34:11;;;;;;;;;93.75;80.50;;;;;;;;5061670;28;45626;-84
2023/05/29 06:36:36;;;;;;;;;24.67;22.33;;;;;;;;5059903;28;46594;-81
2023/05/29 06:39:02;;;;;;;;;15.67;14.67;;;;;;;;5061390;28;45448;-81
2023/05/29 06:41:27;;;;;;;;;16.33;15.00;;;;;;;;5061344;28;45216;-80
2023/05/29 06:43:52;;;;;;;;;12.00;12.00;;;;;;;;5059981;28;45200;-84
2023/05/29 06:46:17;;;;;;;;;51.00;40.67;;;;;;;;5061083;28;45213;-79
2023/05/29 06:48:43;;;;;;;;;18.33;17.33;;;;;;;;5061360;28;45401;-80
2023/05/29 06:51:09;;;;;;;;;17.00;16.00;;;;;;;;5061103;28;45231;-81
2023/05/29 06:53:35;;;;;;;;;17.33;17.00;;;;;;;;5044883;28;45486;-83
2023/05/29 06:56:00;;;;;;;;;16.00;15.00;;;;;;;;5040991;28;45283;-81
2023/05/29 06:58:26;;;;;;;;;15.00;15.00;;;;;;;;5041303;28;45411;-80
2023/05/29 07:00:51;;;;;;;;;18.33;16.67;;;;;;;;5041079;28;45384;-82
2023/05/29 07:03:16;;;;;;;;;17.67;16.67;;;;;;;;5039629;28;45313;-79
2023/05/29 07:05:41;;;;;;;;;18.33;15.67;;;;;;;;5040898;28;45346;-82
2023/05/29 07:08:07;;;;;;;;;17.00;15.33;;;;;;;;5040707;28;46343;-81
2023/05/29 07:10:32;;;;;;;;;22.33;21.67;;;;;;;;5044301;28;45330;-82
2023/05/29 07:12:57;;;;;;;;;23.67;20.67;;;;;;;;5061209;28;45269;-82
2023/05/29 07:15:22;;;;;;;;;14.33;13.33;;;;;;;;5061084;28;45440;-83
2023/05/29 07:17:48;;;;;;;;;15.00;14.00;;;;;;;;5061116;28;45333;-82
2023/05/29 07:20:14;;;;;;;;;16.67;16.33;;;;;;;;5056352;28;45468;-80
2023/05/29 07:22:40;;;;;;;;;17.00;16.00;;;;;;;;5040496;28;45464;-79
2023/05/29 07:25:05;;;;;;;;;21.00;18.33;;;;;;;;5040342;28;45295;-79
2023/05/29 07:27:30;;;;;;;;;19.33;18.67;;;;;;;;5038916;28;47151;-81
2023/05/29 07:29:55;;;;;;;;;14.00;14.00;;;;;;;;5053955;28;45382;-80
2023/05/29 07:32:21;;;;;;;;;18.67;17.67;;;;;;;;5060690;28;45591;-82
2023/05/29 07:34:46;;;;;;;;;14.00;13.33;;;;;;;;5057901;28;45423;-84
2023/05/29 07:37:12;;;;;;;;;13.33;13.33;;;;;;;;5060614;28;45500;-80
2023/05/29 07:39:37;;;;;;;;;16.00;16.00;;;;;;;;5060776;28;45158;-80
2023/05/29 07:42:03;;;;;;;;;23.67;23.67;;;;;;;;5059733;28;45555;-81
2023/05/29 07:44:28;;;;;;;;;26.33;23.00;;;;;;;;5062641;28;45315;-85
2023/05/29 07:46:53;;;;;;;;;32.67;28.33;;;;;;;;5062762;28;45203;-81
2023/05/29 07:49:22;;;;;;;;;15.67;14.00;;;;;;;;5059932;28;45612;-81
2023/05/29 07:51:47;;;;;;;;;14.67;14.00;;;;;;;;5061316;28;45398;-79
2023/05/29 07:54:12;;;;;;;;;16.33;14.67;;;;;;;;5059721;28;45477;-79
2023/05/29 07:56:38;;;;;;;;;17.33;16.33;;;;;;;;5060770;28;46033;-79
2023/05/29 07:59:03;;;;;;;;;15.67;15.00;;;;;;;;5060919;28;45366;-76
2023/05/29 08:01:29;;;;;;;;;16.33;16.33;;;;;;;;5063997;28;45351;-75
2023/05/29 08:03:54;;;;;;;;;16.67;16.67;;;;;;;;5061762;28;45366;-76
2023/05/29 08:06:20;;;;;;;;;11.33;11.33;;;;;;;;5061612;28;48351;-77
2023/05/29 08:08:45;;;;;;;;;17.00;13.00;;;;;;;;5063118;28;45345;-76
2023/05/29 08:11:10;;;;;;;;;16.67;16.67;;;;;;;;5061481;28;45457;-78
2023/05/29 08:13:35;;;;;;;;;26.67;24.33;;;;;;;;5062428;28;46228;-78
2023/05/29 08:16:01;;;;;;;;;26.00;22.33;;;;;;;;5062399;28;45625;-74
2023/05/29 08:18:26;;;;;;;;;17.33;17.00;;;;;;;;5061408;28;45576;-75
2023/05/29 08:20:52;;;;;;;;;17.33;15.00;;;;;;;;5062931;28;45287;-79
2023/05/29 08:23:18;;;;;;;;;17.00;15.00;;;;;;;;5062115;28;46135;-75
2023/05/29 08:25:43;;;;;;;;;18.67;17.33;;;;;;;;5064308;28;46040;-77
2023/05/29 08:28:08;;;;;;;;;46.00;36.67;;;;;;;;5063284;28;45355;-81
2023/05/29 08:30:33;;;;;;;;;30.67;29.33;;;;;;;;5062893;28;45579;-77
2023/05/29 08:32:58;;;;;;;;;15.67;15.67;;;;;;;;5060150;28;46177;-77
2023/05/29 08:35:23;;;;;;;;;19.00;16.33;;;;;;;;5061160;28;45946;-78
2023/05/29 08:37:49;;;;;;;;;15.00;14.00;;;;;;;;5062740;28;45247;-77
2023/05/29 08:40:14;;;;;;;;;15.33;14.33;;;;;;;;5062325;28;45524;-74
2023/05/29 08:42:43;;;;;;;;;15.00;14.00;;;;;;;;5061834;28;45248;-77
2023/05/29 08:45:11;;;;;;;;;18.00;16.00;;;;;;;;5062749;28;46571;-78
2023/05/29 08:47:38;;;;;;;;;13.33;12.33;;;;;;;;5060972;28;45342;-75
2023/05/29 08:50:04;;;;;;;;;10.00;10.00;;;;;;;;5061667;28;45283;-77
2023/05/29 08:52:32;;;;;;;;;18.00;16.67;;;;;;;;5066255;28;45350;-78
2023/05/29 08:55:00;;;;;;;;;13.67;13.67;;;;;;;;5065050;28;45381;-78
2023/05/29 08:57:26;;;;;;;;;17.67;17.33;;;;;;;;5062529;28;45374;-79
2023/05/29 08:59:54;;;;;;;;;14.00;12.67;;;;;;;;5065502;28;45303;-78
2023/05/29 09:02:20;;;;;;;;;27.33;25.33;;;;;;;;5064889;28;45284;-77
2023/05/29 09:04:45;;;;;;;;;23.67;23.67;;;;;;;;5065181;28;45366;-74
2023/05/29 09:07:14;;;;;;;;;18.00;16.67;;;;;;;;5063863;28;45199;-78
2023/05/29 09:09:39;;;;;;;;;18.00;16.67;;;;;;;;5064129;28;45310;-82
2023/05/29 09:12:04;;;;;;;;;15.33;14.67;;;;;;;;5062474;28;47519;-74
2023/05/29 09:14:34;;;;;;;;;14.00;13.00;;;;;;;;5066882;28;45377;-80
2023/05/29 09:16:59;;;;;;;;;15.33;15.33;;;;;;;;5067248;28;45263;-78
2023/05/29 09:19:25;;;;;;;;;15.00;15.00;;;;;;;;5066353;28;45253;-78
2023/05/29 09:21:50;;;;;;;;;32.00;29.33;;;;;;;;5063753;28;47080;-78
2023/05/29 09:24:16;;;;;;;;;18.67;17.33;;;;;;;;5062734;28;47335;-78
2023/05/29 09:26:48;;;;;;;;;51.33;41.00;;;;;;;;5063412;28;45263;-76
2023/05/29 09:29:15;;;;;;;;;16.00;15.00;;;;;;;;5062165;28;45469;-77
2023/05/29 09:31:46;;;;;;;;;15.00;14.67;;;;;;;;5062825;28;45461;-78
2023/05/29 09:34:11;;;;;;;;;14.67;14.67;;;;;;;;5063757;28;45365;-77
2023/05/29 09:36:38;;;;;;;;;32.33;28.00;;;;;;;;5061682;28;45890;-77
2023/05/29 09:39:03;;;;;;;;;19.00;17.33;;;;;;;;5062703;28;45472;-76
2023/05/29 09:41:30;;;;;;;;;20.33;20.33;;;;;;;;5062736;28;45311;-76
2023/05/29 09:43:56;;;;;;;;;18.00;16.33;;;;;;;;5062867;28;46187;-78
2023/05/29 09:46:21;;;;;;;;;20.00;20.00;;;;;;;;5061406;28;45233;-76
2023/05/29 09:48:48;;;;;;;;;17.67;17.67;;;;;;;;5062415;28;45266;-78
2023/05/29 09:51:21;;;;;;;;;15.33;15.00;;;;;;;;5063169;28;45458;-77
2023/05/29 09:53:47;;;;;;;;;77.75;69.50;;;;;;;;5062139;28;45296;-78
2023/05/29 09:56:15;;;;;;;;;65.75;54.00;;;;;;;;5061930;28;45400;-79
2023/05/29 09:58:45;;;;;;;;;22.00;21.00;;;;;;;;5063004;28;45514;-77
2023/05/29 10:01:11;;;;;;;;;18.33;17.67;;;;;;;;5063639;28;46160;-77
2023/05/29 10:03:36;;;;;;;;;18.33;18.00;;;;;;;;5062474;28;46040;-75
2023/05/29 10:06:02;;;;;;;;;53.33;43.00;;;;;;;;5061083;28;45319;-77
2023/05/29 10:08:30;;;;;;;;;18.33;17.67;;;;;;;;5062659;28;45382;-75
2023/05/29 10:11:00;;;;;;;;;59.25;47.00;;;;;;;;5058542;28;45644;-77
2023/05/29 10:13:27;;;;;;;;;18.33;18.33;;;;;;;;5042047;28;46284;-78
2023/05/29 10:15:55;;;;;;;;;18.00;18.00;;;;;;;;5040999;28;45344;-75
2023/05/29 10:18:21;;;;;;;;;18.00;18.00;;;;;;;;5048478;28;45441;-77
2023/05/29 10:20:51;;;;;;;;;20.00;18.67;;;;;;;;5054048;28;45489;-76
2023/05/29 10:23:16;;;;;;;;;26.33;26.00;;;;;;;;5062417;28;45310;-75
2023/05/29 10:25:43;;;;;;;;;20.00;20.00;;;;;;;;5062327;28;45253;-74
2023/05/29 10:28:10;;;;;;;;;19.67;18.67;;;;;;;;5063415;28;45515;-76
2023/05/29 10:30:45;;;;;;;;;42.67;36.00;;;;;;;;5060935;28;45282;-75
2023/05/29 10:33:21;;;;;;;;;19.33;19.33;;;;;;;;5060056;28;47430;-74
2023/05/29 10:36:01;;;;;;;;;52.50;42.00;;;;;;;;5060764;28;45346;-77
2023/05/29 10:38:26;;;;;;;;;25.33;24.00;;;;;;;;5063053;28;45319;-74
2023/05/29 10:40:51;;;;;;;;;23.00;21.67;;;;;;;;5062881;28;45301;-75
2023/05/29 10:43:33;;;;;;;;;24.00;22.00;;;;;;;;5062189;28;45373;-75
2023/05/29 10:45:58;;;;;;;;;20.67;20.33;;;;;;;;5061768;28;45153;-74
2023/05/29 10:48:28;;;;;;;;;21.33;20.33;;;;;;;;5062820;28;45129;-74
2023/05/29 10:50:53;;;;;;;;;24.33;24.00;;;;;;;;5061751;28;46522;-74
2023/05/29 10:53:26;;;;;;;;;22.00;20.33;;;;;;;;5062661;28;46171;-74
2023/05/29 10:55:51;;;;;;;;;23.67;22.67;;;;;;;;5062553;28;45373;-76
2023/05/29 10:58:20;;;;;;;;;18.67;18.00;;;;;;;;5062622;28;45141;-74
2023/05/29 11:00:46;;;;;;;;;39.00;33.33;;;;;;;;5064135;28;45348;-75
2023/05/29 11:03:14;;;;;;;;;31.67;28.33;;;;;;;;5061786;28;46690;-75
2023/05/29 11:05:56;;;;;;;;;24.67;22.67;;;;;;;;5060223;28;45562;-76
2023/05/29 11:08:30;;;;;;;;;67.50;58.00;;;;;;;;5062839;28;45334;-75
2023/05/29 11:10:56;;;;;;;;;52.00;42.00;;;;;;;;5061149;28;45385;-75
2023/05/29 11:13:25;;;;;;;;;22.33;20.33;;;;;;;;5060411;28;45330;-75
2023/05/29 11:16:12;;;;;;;;;23.67;21.33;;;;;;;;5061851;28;45239;-74
2023/05/29 11:18:46;;;;;;;;;23.00;23.00;;;;;;;;5059334;28;45355;-77
2023/05/29 11:21:31;;;;;;;;;23.33;23.33;;;;;;;;5059047;28;46363;-75
2023/05/29 11:23:57;;;;;;;;;34.33;30.00;;;;;;;;5057154;28;45410;-74
2023/05/29 11:26:23;;;;;;;;;19.00;16.33;;;;;;;;5059120;28;45417;-74
2023/05/29 11:28:49;;;;;;;;;25.67;22.67;;;;;;;;5060836;28;45350;-77
2023/05/29 11:31:16;;;;;;;;;23.00;21.33;;;;;;;;5062954;28;45343;-74
2023/05/29 11:33:45;;;;;;;;;15.00;14.00;;;;;;;;5060414;28;46939;-75
2023/05/29 11:36:11;;;;;;;;;20.33;20.33;;;;;;;;5060650;28;45201;-74
2023/05/29 11:38:36;;;;;;;;;26.33;22.33;;;;;;;;5060667;28;45331;-75
2023/05/29 11:41:02;;;;;;;;;44.33;36.67;;;;;;;;5061230;28;45233;-75
2023/05/29 11:43:27;;;;;;;;;16.67;16.67;;;;;;;;5060850;28;45358;-74
2023/05/29 11:45:52;;;;;;;;;18.00;16.67;;;;;;;;5061935;28;45196;-74
2023/05/29 11:48:17;;;;;;;;;20.33;18.67;;;;;;;;5061749;28;45685;-75
2023/05/29 11:50:43;;;;;;;;;21.00;20.00;;;;;;;;5062559;28;45309;-75
2023/05/29 11:53:09;;;;;;;;;36.00;30.67;;;;;;;;5060898;28;45477;-77
2023/05/29 11:55:34;;;;;;;;;18.00;17.67;;;;;;;;5059998;28;45268;-74
2023/05/29 11:58:00;;;;;;;;;16.33;15.00;;;;;;;;5060568;28;45263;-75
2023/05/29 12:00:29;;;;;;;;;21.00;20.00;;;;;;;;5060139;28;45319;-77
2023/05/29 12:02:57;;;;;;;;;18.00;17.67;;;;;;;;5059653;28;47334;-76
2023/05/29 12:05:22;;;;;;;;;22.00;19.67;;;;;;;;5061667;28;46197;-75
2023/05/29 12:07:49;;;;;;;;;20.00;18.00;;;;;;;;5061870;28;45223;-74
2023/05/29 12:10:16;;;;;;;;;24.33;23.00;;;;;;;;5059948;28;45247;-74
2023/05/29 12:12:41;;;;;;;;;37.67;33.00;;;;;;;;5060234;28;47475;-74
2023/05/29 12:15:08;;;;;;;;;21.67;21.67;;;;;;;;5060525;28;45470;-77
2023/05/29 12:17:33;;;;;;;;;37.67;32.00;;;;;;;;5061063;28;45184;-76
2023/05/29 12:19:58;;;;;;;;;26.00;25.33;;;;;;;;5061885;28;45259;-76
2023/05/29 12:22:34;;;;;;;;;17.67;16.33;;;;;;;;5060921;28;45423;-75
2023/05/29 12:25:03;;;;;;;;;20.33;19.33;;;;;;;;5060771;28;45280;-75
2023/05/29 12:27:28;;;;;;;;;41.67;32.33;;;;;;;;5060853;28;45349;-75
2023/05/29 12:30:01;;;;;;;;;22.00;22.00;;;;;;;;5059331;28;45857;-74
2023/05/29 12:32:33;;;;;;;;;33.67;28.33;;;;;;;;5060636;28;45337;-75
2023/05/29 12:34:59;;;;;;;;;15.33;14.67;;;;;;;;5060358;28;45228;-77
2023/05/29 12:37:25;;;;;;;;;36.00;32.00;;;;;;;;5059391;28;45235;-75
2023/05/29 12:40:10;;;;;;;;;19.33;19.33;;;;;;;;5059876;28;47543;-75
2023/05/29 12:42:37;;;;;;;;;13.00;13.00;;;;;;;;5060167;28;46171;-76
2023/05/29 12:45:06;;;;;;;;;14.67;14.33;;;;;;;;5058986;28;45314;-77
2023/05/29 12:47:31;;;;;;;;;19.00;17.00;;;;;;;;5058862;28;45393;-76
2023/05/29 12:49:56;;;;;;;;;13.00;13.00;;;;;;;;5060065;28;45295;-75
2023/05/29 12:52:23;;;;;;;;;16.33;15.33;;;;;;;;5057192;28;46293;-75
2023/05/29 12:54:48;;;;;;;;;14.33;13.67;;;;;;;;5039247;28;45329;-74
2023/05/29 12:57:13;;;;;;;;;9.00;8.00;;;;;;;;5038032;28;45303;-74
2023/05/29 12:59:38;;;;;;;;;12.67;12.67;;;;;;;;5038318;28;47676;-77
2023/05/29 13:02:04;;;;;;;;;19.67;17.00;;;;;;;;5039289;28;45239;-74
2023/05/29 13:04:29;;;;;;;;;11.00;10.33;;;;;;;;5040266;28;45256;-74
2023/05/29 13:06:55;;;;;;;;;55.67;43.00;;;;;;;;5057879;28;45291;-75
2023/05/29 13:09:20;;;;;;;;;26.00;23.33;;;;;;;;5052226;28;45433;-75
2023/05/29 13:11:45;;;;;;;;;17.33;15.33;;;;;;;;5046524;28;46475;-76
2023/05/29 13:14:10;;;;;;;;;41.33;34.00;;;;;;;;5039112;28;45237;-75
2023/05/29 13:16:36;;;;;;;;;11.00;10.67;;;;;;;;5039880;28;45540;-76
2023/05/29 13:19:01;;;;;;;;;50.33;40.67;;;;;;;;5039120;28;45568;-75
2023/05/29 13:21:26;;;;;;;;;12.67;12.67;;;;;;;;5037828;28;47433;-76
2023/05/29 13:23:51;;;;;;;;;13.00;12.00;;;;;;;;5044542;28;46224;-75
2023/05/29 13:26:16;;;;;;;;;14.00;13.00;;;;;;;;5058128;28;45341;-77
2023/05/29 13:28:42;;;;;;;;;49.33;39.67;;;;;;;;5057970;28;45847;-74
2023/05/29 13:31:07;;;;;;;;;47.33;38.67;;;;;;;;5059255;28;46348;-75
2023/05/29 13:33:32;;;;;;;;;14.33;14.00;;;;;;;;5059467;28;45282;-77
2023/05/29 13:35:57;;;;;;;;;12.00;11.33;;;;;;;;5059662;28;45614;-76
2023/05/29 13:38:22;;;;;;;;;9.00;8.00;;;;;;;;5062465;28;45465;-76
2023/05/29 13:40:48;;;;;;;;;11.00;9.00;;;;;;;;5062613;28;45449;-76
2023/05/29 13:43:13;;;;;;;;;9.33;9.33;;;;;;;;5062462;28;45363;-76
2023/05/29 13:45:40;;;;;;;;;16.00;14.67;;;;;;;;5055907;28;45298;-77
2023/05/29 13:48:05;;;;;;;;;10.00;10.00;;;;;;;;5041145;28;46758;-74
2023/05/29 13:50:30;;;;;;;;;29.00;26.00;;;;;;;;5044178;28;45370;-79
2023/05/29 13:52:55;;;;;;;;;10.00;10.00;;;;;;;;5045529;28;45320;-77
2023/05/29 13:55:21;;;;;;;;;14.33;13.33;;;;;;;;5056428;28;45326;-78
2023/05/29 13:57:46;;;;;;;;;44.67;36.33;;;;;;;;5059576;28;46161;-79
2023/05/29 14:00:12;;;;;;;;;25.00;23.00;;;;;;;;5060658;28;45470;-76
2023/05/29 14:02:37;;;;;;;;;50.33;39.67;;;;;;;;5059623;28;45338;-77
2023/05/29 14:05:02;;;;;;;;;9.33;9.33;;;;;;;;5060991;28;45293;-79
2023/05/29 14:07:28;;;;;;;;;8.00;8.00;;;;;;;;5060032;28;47352;-79
2023/05/29 14:09:53;;;;;;;;;10.33;9.67;;;;;;;;5060242;28;48045;-77
2023/05/29 14:12:18;;;;;;;;;10.00;10.00;;;;;;;;5060751;28;45271;-77
2023/05/29 14:14:43;;;;;;;;;7.33;7.33;;;;;;;;5062645;28;45272;-77